createdAt,value
2022-08-01T00:00:08.940Z,1.02
2022-08-01T00:02:37.590Z,1.00
2022-08-01T00:05:06.905Z,0.98
2022-08-01T00:07:34.691Z,1.00
2022-08-01T00:10:02.222Z,0.80
2022-08-01T00:12:28.923Z,0.93
2022-08-01T00:14:55.517Z,1.30
2022-08-01T00:17:22.236Z,1.08
2022-08-01T00:19:48.943Z,0.93
2022-08-01T00:22:15.698Z,1.02
2022-08-01T00:24:42.331Z,0.98
2022-08-01T00:27:08.995Z,0.77
2022-08-01T00:30:09.914Z,1.27
2022-08-01T00:32:22.323Z,1.05
2022-08-01T00:34:48.965Z,0.93
2022-08-01T00:37:16.498Z,1.17
2022-08-01T00:39:43.598Z,0.93
2022-08-01T00:42:11.918Z,0.88
2022-08-01T00:44:39.236Z,0.93
2022-08-01T00:47:06.990Z,0.80
2022-08-01T00:49:34.275Z,0.95
2022-08-01T00:52:02.296Z,1.08
2022-08-01T00:54:29.466Z,0.95
2022-08-01T00:56:56.821Z,1.08
2022-08-01T00:59:23.938Z,0.77
2022-08-01T01:01:52.794Z,0.80
2022-08-01T01:04:20.509Z,0.70
2022-08-01T01:07:08.511Z,1.13
2022-08-01T01:09:46.863Z,0.93
2022-08-01T01:12:55.550Z,1.10
2022-08-01T01:15:31.790Z,0.98
2022-08-01T01:18:10.470Z,0.75
2022-08-01T01:20:41.181Z,0.93
2022-08-01T01:23:10.830Z,0.85
2022-08-01T01:26:21.915Z,1.08
2022-08-01T01:28:50.985Z,0.93
2022-08-01T01:31:22.222Z,1.55
2022-08-01T01:33:51.100Z,0.90
2022-08-01T01:36:19.055Z,1.33
2022-08-01T01:38:48.322Z,0.90
2022-08-01T01:41:17.929Z,0.85
2022-08-01T01:43:46.796Z,1.23
2022-08-01T01:46:17.922Z,0.98
2022-08-01T01:51:14.148Z,1.00
2022-08-01T01:53:42.327Z,0.90
2022-08-01T01:56:11.075Z,0.80
2022-08-01T01:58:40.241Z,0.93
2022-08-01T02:01:14.460Z,0.80
2022-08-01T02:03:44.316Z,0.95
2022-08-01T02:06:14.716Z,0.95
2022-08-01T02:08:43.515Z,1.17
2022-08-01T02:11:19.731Z,1.00
2022-08-01T02:14:00.045Z,0.90
2022-08-01T02:16:29.954Z,0.70
2022-08-01T02:18:57.069Z,1.00
2022-08-01T02:21:30.807Z,1.05
2022-08-01T02:24:09.399Z,1.15
2022-08-01T02:26:40.340Z,1.10
2022-08-01T02:29:09.604Z,0.82
2022-08-01T02:31:39.510Z,0.82
2022-08-01T02:34:10.326Z,1.00
2022-08-01T02:36:38.213Z,1.00
2022-08-01T02:39:14.443Z,0.90
2022-08-01T02:41:44.363Z,1.30
2022-08-01T02:44:24.599Z,1.02
2022-08-01T02:46:58.652Z,1.33
2022-08-01T02:49:27.446Z,0.90
2022-08-01T02:51:56.833Z,0.82
2022-08-01T02:54:25.125Z,0.98
2022-08-01T02:56:54.472Z,0.80
2022-08-01T02:59:26.696Z,0.98
2022-08-01T03:01:56.327Z,1.00
2022-08-01T03:04:24.732Z,0.95
2022-08-01T03:06:56.207Z,1.05
2022-08-01T03:09:23.955Z,1.42
2022-08-01T03:11:51.725Z,1.48
2022-08-01T03:14:21.703Z,1.13
2022-08-01T03:16:50.541Z,1.55
2022-08-01T03:19:19.844Z,1.15
2022-08-01T03:21:49.201Z,1.20
2022-08-01T03:24:17.486Z,1.27
2022-08-01T03:26:45.861Z,1.40
2022-08-01T03:29:20.772Z,1.08
2022-08-01T03:31:49.740Z,1.10
2022-08-01T03:34:17.480Z,1.17
2022-08-01T03:36:50.035Z,1.20
2022-08-01T03:39:18.753Z,1.27
2022-08-01T03:41:56.655Z,0.98
2022-08-01T03:44:29.733Z,1.20
2022-08-01T03:47:02.223Z,1.17
2022-08-01T03:49:32.952Z,1.00
2022-08-01T03:52:03.452Z,1.08
2022-08-01T03:54:34.677Z,1.52
2022-08-01T03:57:02.711Z,1.40
2022-08-01T03:59:31.011Z,1.20
2022-08-01T04:01:59.009Z,0.98
2022-08-01T04:04:26.209Z,0.95
2022-08-01T04:06:55.322Z,1.10
2022-08-01T04:09:22.789Z,1.08
2022-08-01T04:11:50.070Z,1.13
2022-08-01T04:14:16.793Z,0.90
2022-08-01T04:16:43.530Z,1.10
2022-08-01T04:19:10.129Z,1.02
2022-08-01T04:21:37.884Z,1.10
2022-08-01T04:24:14.982Z,1.33
2022-08-01T04:26:46.209Z,0.88
2022-08-01T04:29:16.230Z,0.90
2022-08-01T04:31:46.392Z,1.02
2022-08-01T04:34:17.547Z,0.98
2022-08-01T04:39:12.846Z,0.95
2022-08-01T04:41:40.851Z,1.02
2022-08-01T04:44:07.923Z,0.98
2022-08-01T04:46:35.931Z,0.88
2022-08-01T04:49:03.066Z,0.80
2022-08-01T04:51:29.824Z,0.93
2022-08-01T04:53:59.600Z,1.10
2022-08-01T04:56:26.178Z,0.93
2022-08-01T04:59:19.911Z,1.23
2022-08-01T05:01:50.127Z,0.90
2022-08-01T05:04:16.759Z,0.98
2022-08-01T05:06:43.329Z,0.90
2022-08-01T05:09:09.940Z,1.00
2022-08-01T05:11:36.525Z,0.80
2022-08-01T05:14:03.134Z,1.20
2022-08-01T05:16:29.740Z,0.93
2022-08-01T05:18:56.688Z,0.98
2022-08-01T05:21:23.293Z,0.90
2022-08-01T05:23:50.091Z,1.00
2022-08-01T05:26:16.701Z,1.10
2022-08-01T05:28:43.492Z,0.93
2022-08-01T05:31:10.174Z,1.10
2022-08-01T05:33:36.785Z,1.23
2022-08-01T05:36:03.568Z,1.02
2022-08-01T05:38:30.205Z,1.23
2022-08-01T05:40:56.838Z,0.90
2022-08-01T05:43:28.540Z,1.20
2022-08-01T05:45:55.767Z,0.88
2022-08-01T05:48:22.403Z,0.90
2022-08-01T05:50:49.000Z,1.13
2022-08-01T05:53:15.674Z,0.98
2022-08-01T05:55:42.414Z,0.98
2022-08-01T05:58:09.036Z,0.88
2022-08-01T06:00:40.043Z,1.03
2022-08-01T06:03:06.713Z,0.95
2022-08-01T06:05:33.375Z,0.88
2022-08-01T06:08:00.039Z,1.10
2022-08-01T06:10:26.723Z,1.00
2022-08-01T06:12:53.359Z,0.80
2022-08-01T06:15:20.042Z,1.00
2022-08-01T06:17:47.776Z,1.00
2022-08-01T06:20:14.375Z,1.05
2022-08-01T06:22:40.993Z,1.23
2022-08-01T06:25:08.610Z,1.05
2022-08-01T06:27:36.247Z,1.05
2022-08-01T06:30:04.466Z,1.00
2022-08-01T06:32:32.047Z,1.23
2022-08-01T06:34:58.682Z,1.20
2022-08-01T06:37:32.775Z,0.80
2022-08-01T06:40:07.236Z,1.00
2022-08-01T06:42:36.523Z,1.30
2022-08-01T06:45:11.104Z,0.90
2022-08-01T06:47:41.832Z,0.93
2022-08-01T06:50:09.946Z,1.00
2022-08-01T06:52:38.833Z,1.10
2022-08-01T06:55:05.973Z,1.45
2022-08-01T06:57:32.658Z,1.20
2022-08-01T07:00:03.302Z,1.00
2022-08-01T07:02:29.898Z,0.90
2022-08-01T07:04:56.487Z,1.17
2022-08-01T07:07:23.078Z,1.05
2022-08-01T07:09:49.678Z,0.88
2022-08-01T07:12:18.454Z,1.02
2022-08-01T07:14:45.075Z,1.13
2022-08-01T07:17:11.662Z,1.08
2022-08-01T07:19:38.619Z,1.40
2022-08-01T07:22:05.481Z,1.27
2022-08-01T07:24:32.667Z,1.40
2022-08-01T07:27:24.150Z,1.05
2022-08-01T07:29:48.326Z,1.00
2022-08-01T07:32:14.948Z,1.27
2022-08-01T07:34:42.644Z,1.48
2022-08-01T07:37:09.269Z,0.90
2022-08-01T07:39:35.918Z,1.05
2022-08-01T07:42:07.655Z,1.05
2022-08-01T07:44:35.365Z,1.08
2022-08-01T07:47:02.080Z,1.23
2022-08-01T07:49:28.949Z,1.00
2022-08-01T07:52:03.276Z,1.13
2022-08-01T07:54:33.904Z,1.27
2022-08-01T07:57:01.429Z,1.30
2022-08-01T07:59:28.151Z,1.42
2022-08-01T08:01:54.829Z,1.50
2022-08-01T08:04:21.507Z,1.15
2022-08-01T08:06:48.661Z,1.30
2022-08-01T08:09:16.927Z,1.38
2022-08-01T08:11:48.161Z,1.25
2022-08-01T08:14:16.606Z,0.95
2022-08-01T08:16:44.108Z,1.20
2022-08-01T08:19:11.407Z,1.02
2022-08-01T08:21:38.808Z,1.00
2022-08-01T08:24:26.279Z,1.35
2022-08-01T08:27:01.895Z,1.20
2022-08-01T08:29:30.880Z,1.30
2022-08-01T08:31:58.934Z,1.15
2022-08-01T08:34:26.718Z,1.35
2022-08-01T08:36:54.147Z,1.25
2022-08-01T08:39:21.074Z,1.35
2022-08-01T08:41:49.367Z,1.20
2022-08-01T08:44:18.114Z,1.25
2022-08-01T08:46:47.690Z,1.17
2022-08-01T08:49:18.441Z,1.17
2022-08-01T08:51:49.476Z,1.60
2022-08-01T08:54:17.417Z,1.10
2022-08-01T08:56:45.442Z,1.30
2022-08-01T08:59:14.532Z,1.52
2022-08-01T09:01:42.568Z,1.05
2022-08-01T09:04:10.178Z,1.05
2022-08-01T09:06:37.298Z,1.20
2022-08-01T09:09:05.473Z,1.30
2022-08-01T09:11:32.487Z,1.13
2022-08-01T09:14:23.200Z,1.25
2022-08-01T09:19:40.322Z,0.90
2022-08-01T09:22:18.960Z,1.00
2022-08-01T09:25:09.545Z,1.08
2022-08-01T09:27:39.117Z,0.90
2022-08-01T09:30:12.797Z,1.00
2022-08-01T09:32:58.628Z,1.08
2022-08-01T09:35:43.906Z,0.95
2022-08-01T09:38:14.602Z,1.20
2022-08-01T09:40:55.641Z,0.95
2022-08-01T09:43:25.067Z,1.55
2022-08-01T09:45:53.439Z,0.80
2022-08-01T09:48:22.653Z,1.10
2022-08-01T09:50:55.481Z,0.70
2022-08-01T09:53:29.407Z,0.90
2022-08-01T09:56:10.597Z,1.00
2022-08-01T09:59:06.953Z,0.90
2022-08-01T10:02:02.782Z,0.85
2022-08-01T10:04:29.513Z,1.20
2022-08-01T10:07:06.668Z,0.75
2022-08-01T10:09:40.873Z,0.63
2022-08-01T10:12:09.151Z,0.85
2022-08-01T10:14:46.161Z,0.80
2022-08-01T10:17:19.610Z,0.90
2022-08-01T10:19:47.891Z,0.85
2022-08-01T10:22:17.714Z,0.88
2022-08-01T10:24:49.673Z,1.17
2022-08-01T10:27:24.741Z,1.00
2022-08-01T10:30:15.477Z,0.70
2022-08-01T10:32:50.627Z,1.00
2022-08-01T10:35:45.749Z,0.70
2022-08-01T10:38:06.789Z,0.85
2022-08-01T10:40:38.315Z,0.82
2022-08-01T10:43:06.845Z,0.80
2022-08-01T10:45:34.417Z,0.93
2022-08-01T10:48:10.808Z,0.90
2022-08-01T10:50:48.663Z,0.77
2022-08-01T10:53:23.248Z,1.40
2022-08-01T10:55:56.920Z,0.88
2022-08-01T10:58:42.834Z,0.75
2022-08-01T11:01:20.491Z,0.80
2022-08-01T11:03:58.333Z,1.10
2022-08-01T11:06:53.373Z,0.88
2022-08-01T11:09:36.572Z,0.75
2022-08-01T11:12:24.610Z,0.93
2022-08-01T11:15:00.663Z,0.70
2022-08-01T11:17:37.168Z,0.93
2022-08-01T11:20:19.262Z,0.50
2022-08-01T11:22:58.513Z,0.80
2022-08-01T11:26:05.653Z,0.73
2022-08-01T11:28:15.442Z,0.80
2022-08-01T11:30:46.358Z,0.73
2022-08-01T11:33:14.859Z,0.80
2022-08-01T11:36:14.593Z,0.70
2022-08-01T11:39:01.703Z,0.82
2022-08-01T11:41:38.044Z,0.90
2022-08-01T11:44:06.448Z,0.98
2022-08-01T11:46:57.822Z,0.95
2022-08-01T11:49:38.658Z,0.80
2022-08-01T11:52:11.997Z,0.70
2022-08-01T11:54:50.586Z,0.70
2022-08-01T11:57:23.023Z,0.75
2022-08-01T12:00:03.793Z,0.93
2022-08-01T12:02:39.831Z,0.75
2022-08-01T12:05:13.957Z,0.60
2022-08-01T12:07:42.664Z,0.52
2022-08-01T12:10:14.958Z,0.70
2022-08-01T12:12:50.492Z,0.60
2022-08-01T12:15:18.406Z,0.60
2022-08-01T12:17:58.333Z,0.50
2022-08-01T12:20:32.364Z,0.60
2022-08-01T12:23:01.826Z,0.70
2022-08-01T12:25:28.780Z,0.70
2022-08-01T12:27:57.844Z,0.85
2022-08-01T12:30:26.155Z,0.80
2022-08-01T12:32:54.359Z,0.65
2022-08-01T12:35:24.200Z,0.60
2022-08-01T12:37:55.047Z,0.52
2022-08-01T12:40:21.666Z,1.00
2022-08-01T12:42:59.537Z,0.52
2022-08-01T12:45:36.380Z,0.60
2022-08-01T12:48:08.467Z,0.60
2022-08-01T12:50:37.985Z,1.20
2022-08-01T12:53:05.098Z,0.50
2022-08-01T12:55:34.821Z,0.50
2022-08-01T12:58:11.538Z,0.50
2022-08-01T13:00:45.186Z,0.50
2022-08-01T13:03:18.253Z,0.43
2022-08-01T13:05:46.326Z,0.40
2022-08-01T13:08:14.579Z,0.63
2022-08-01T13:10:42.125Z,0.50
2022-08-01T13:13:09.928Z,0.43
2022-08-01T13:15:41.782Z,0.50
2022-08-01T13:18:31.628Z,0.50
2022-08-01T13:21:11.854Z,0.43
2022-08-01T13:24:03.162Z,0.90
2022-08-01T13:27:01.099Z,0.70
2022-08-01T13:29:32.538Z,0.50
2022-08-01T13:32:00.426Z,0.40
2022-08-01T13:34:34.856Z,0.47
2022-08-01T13:37:02.635Z,0.50
2022-08-01T13:39:41.326Z,0.50
2022-08-01T13:42:09.797Z,0.60
2022-08-01T13:44:36.782Z,0.65
2022-08-01T13:47:11.651Z,0.50
2022-08-01T13:49:44.032Z,0.50
2022-08-01T13:52:11.102Z,0.80
2022-08-01T13:54:37.957Z,0.45
2022-08-01T13:57:05.068Z,0.47
2022-08-01T13:59:31.687Z,0.70
2022-08-01T14:01:58.372Z,0.52
2022-08-01T14:04:25.291Z,0.30
2022-08-01T14:06:51.986Z,0.60
2022-08-01T14:09:23.811Z,0.40
2022-08-01T14:11:51.327Z,0.50
2022-08-01T14:14:17.993Z,0.50
2022-08-01T14:16:45.969Z,0.50
2022-08-01T14:19:12.916Z,0.50
2022-08-01T14:21:39.597Z,0.40
2022-08-01T14:24:07.621Z,0.38
2022-08-01T14:26:34.734Z,0.40
2022-08-01T14:29:03.178Z,0.43
2022-08-01T14:31:34.103Z,0.60
2022-08-01T14:34:01.280Z,0.65
2022-08-01T14:36:30.510Z,0.30
2022-08-01T14:39:00.617Z,0.50
2022-08-01T14:41:28.402Z,0.28
2022-08-01T14:43:55.924Z,0.40
2022-08-01T14:46:22.568Z,0.50
2022-08-01T14:48:49.271Z,0.52
2022-08-01T14:51:15.893Z,0.70
2022-08-01T14:53:47.101Z,0.50
2022-08-01T14:56:18.340Z,0.77
2022-08-01T14:58:45.088Z,0.80
2022-08-01T15:01:11.991Z,0.40
2022-08-01T15:03:38.703Z,0.50
2022-08-01T15:06:07.259Z,0.60
2022-08-01T15:08:34.147Z,0.55
2022-08-01T15:11:02.237Z,0.60
2022-08-01T15:13:28.898Z,0.60
2022-08-01T15:15:55.567Z,0.50
2022-08-01T15:18:28.542Z,0.50
2022-08-01T15:20:55.746Z,0.90
2022-08-01T15:23:22.449Z,0.93
2022-08-01T15:25:50.247Z,0.88
2022-08-01T15:28:17.187Z,0.95
2022-08-01T15:30:44.034Z,0.65
2022-08-01T15:33:10.620Z,0.40
2022-08-01T15:35:37.332Z,0.68
2022-08-01T15:38:03.950Z,0.68
2022-08-01T15:40:33.985Z,0.68
2022-08-01T15:43:00.868Z,0.50
2022-08-01T15:48:14.211Z,0.50
2022-08-01T15:50:40.905Z,0.50
2022-08-01T15:53:07.894Z,0.60
2022-08-01T15:55:38.712Z,0.50
2022-08-01T16:00:32.892Z,0.93
2022-08-01T16:03:05.611Z,0.40
2022-08-01T16:05:32.210Z,0.45
2022-08-01T16:08:01.645Z,0.50
2022-08-01T16:10:30.247Z,0.32
2022-08-01T16:12:57.009Z,0.65
2022-08-01T16:15:36.355Z,0.68
2022-08-01T16:18:08.000Z,0.60
2022-08-01T16:20:35.404Z,0.60
2022-08-01T16:23:02.378Z,0.45
2022-08-01T16:25:29.144Z,0.50
2022-08-01T16:27:55.801Z,0.60
2022-08-01T16:30:22.515Z,0.60
2022-08-01T16:32:54.319Z,0.50
2022-08-01T16:35:24.612Z,0.50
2022-08-01T16:38:06.715Z,0.40
2022-08-01T16:40:46.474Z,0.70
2022-08-01T16:45:46.201Z,0.35
2022-08-01T16:48:19.671Z,0.50
2022-08-01T16:50:49.332Z,0.57
2022-08-01T16:53:20.264Z,0.50
2022-08-01T16:58:23.535Z,0.60
2022-08-01T17:00:56.880Z,0.90
2022-08-01T17:03:46.880Z,0.50
2022-08-01T17:06:11.206Z,0.75
2022-08-01T17:08:46.173Z,0.57
2022-08-01T17:11:14.679Z,0.60
2022-08-01T17:13:41.414Z,0.50
2022-08-01T17:16:09.211Z,0.63
2022-08-01T17:18:35.901Z,0.40
2022-08-01T17:21:02.708Z,0.50
2022-08-01T17:23:31.661Z,0.50
2022-08-01T17:25:59.597Z,0.70
2022-08-01T17:28:26.584Z,0.68
2022-08-01T17:30:53.538Z,0.60
2022-08-01T17:33:20.544Z,0.63
2022-08-01T17:35:47.327Z,0.60
2022-08-01T17:38:14.070Z,0.68
2022-08-01T17:40:41.250Z,0.80
2022-08-01T17:43:08.510Z,0.65
2022-08-01T17:45:39.427Z,0.47
2022-08-01T17:48:18.891Z,0.75
2022-08-01T17:50:46.713Z,0.68
2022-08-01T17:53:14.745Z,1.08
2022-08-01T17:55:54.466Z,0.70
2022-08-01T17:58:49.892Z,0.85
2022-08-01T18:01:11.024Z,0.80
2022-08-01T18:03:41.222Z,0.60
2022-08-01T18:06:17.224Z,0.60
2022-08-01T18:08:46.737Z,0.50
2022-08-01T18:11:14.844Z,0.60
2022-08-01T18:13:41.708Z,0.60
2022-08-01T18:16:11.056Z,0.70
2022-08-01T18:18:38.725Z,0.70
2022-08-01T18:21:06.858Z,0.63
2022-08-01T18:23:34.655Z,0.82
2022-08-01T18:26:02.518Z,0.60
2022-08-01T18:28:34.194Z,0.82
2022-08-01T18:31:06.117Z,0.68
2022-08-01T18:33:33.674Z,1.20
2022-08-01T18:36:03.542Z,0.90
2022-08-01T18:38:32.188Z,0.60
2022-08-01T18:40:59.758Z,0.75
2022-08-01T18:43:26.358Z,0.70
2022-08-01T18:45:53.013Z,0.80
2022-08-01T18:48:20.138Z,0.80
2022-08-01T18:50:46.765Z,0.65
2022-08-01T18:53:13.492Z,0.60
2022-08-01T18:55:40.153Z,0.88
2022-08-01T18:58:06.811Z,0.73
2022-08-01T19:00:33.488Z,0.80
2022-08-01T19:03:00.090Z,0.68
2022-08-01T19:05:26.726Z,0.70
2022-08-01T19:08:06.570Z,0.80
2022-08-01T19:10:38.831Z,0.70
2022-08-01T19:13:06.301Z,0.60
2022-08-01T19:15:33.124Z,0.40
2022-08-01T19:18:00.074Z,0.70
2022-08-01T19:20:26.910Z,0.70
2022-08-01T19:22:53.732Z,0.60
2022-08-01T19:25:20.456Z,0.70
2022-08-01T19:27:49.201Z,0.80
2022-08-01T19:30:17.800Z,0.70
2022-08-01T19:32:46.175Z,0.68
2022-08-01T19:35:16.799Z,0.73
2022-08-01T19:37:45.948Z,0.50
2022-08-01T19:40:27.769Z,0.75
2022-08-01T19:42:57.031Z,0.70
2022-08-01T19:45:24.789Z,0.70
2022-08-01T19:47:57.423Z,0.50
2022-08-01T19:50:26.801Z,0.68
2022-08-01T19:53:00.295Z,0.85
2022-08-01T19:55:27.947Z,0.80
2022-08-01T19:58:24.633Z,0.98
2022-08-01T20:00:43.743Z,0.82
2022-08-01T20:03:10.457Z,0.77
2022-08-01T20:05:38.718Z,0.80
2022-08-01T20:08:07.507Z,0.82
2022-08-01T20:10:35.726Z,0.70
2022-08-01T20:13:02.426Z,0.80
2022-08-01T20:15:29.278Z,0.70
2022-08-01T20:17:59.083Z,0.82
2022-08-01T20:20:26.842Z,1.00
2022-08-01T20:22:55.801Z,0.63
2022-08-01T20:25:29.616Z,0.80
2022-08-01T20:28:00.492Z,0.88
2022-08-01T20:30:29.993Z,0.75
2022-08-01T20:33:00.024Z,0.70
2022-08-01T20:35:52.061Z,0.80
2022-08-01T20:38:17.353Z,1.00
2022-08-01T20:40:45.579Z,0.90
2022-08-01T20:43:13.729Z,0.80
2022-08-01T20:45:42.370Z,0.70
2022-08-01T20:48:12.435Z,0.65
2022-08-01T20:51:00.529Z,1.00
2022-08-01T20:53:27.139Z,0.77
2022-08-01T20:56:33.721Z,0.85
2022-08-01T20:59:39.646Z,0.75
2022-08-01T21:02:19.441Z,1.20
2022-08-01T21:04:55.657Z,0.85
2022-08-01T21:07:35.870Z,1.40
2022-08-01T21:10:08.777Z,0.98
2022-08-01T21:12:48.377Z,1.15
2022-08-01T21:15:30.638Z,1.52
2022-08-01T21:18:32.248Z,1.50
2022-08-01T21:21:01.904Z,1.30
2022-08-01T21:23:39.739Z,1.65
2022-08-01T21:26:08.780Z,1.55
2022-08-01T21:28:41.383Z,1.00
2022-08-01T21:31:22.247Z,1.35
2022-08-01T21:34:00.779Z,1.20
2022-08-01T21:36:31.281Z,1.08
2022-08-01T21:38:59.634Z,1.10
2022-08-01T21:42:03.412Z,1.10
2022-08-01T21:44:16.499Z,1.58
2022-08-01T21:46:44.023Z,1.10
2022-08-01T21:49:11.489Z,1.00
2022-08-01T21:51:52.106Z,1.20
2022-08-01T21:54:41.070Z,1.30
2022-08-01T21:57:26.891Z,0.95
2022-08-01T22:00:09.346Z,0.75
2022-08-01T22:02:42.535Z,0.95
2022-08-01T22:05:10.781Z,0.52
2022-08-01T22:07:48.488Z,0.90
2022-08-01T22:10:20.232Z,0.50
2022-08-01T22:12:47.474Z,0.93
2022-08-01T22:15:14.812Z,0.82
2022-08-01T22:17:42.163Z,0.43
2022-08-01T22:20:09.410Z,0.32
2022-08-01T22:22:51.164Z,0.40
2022-08-01T22:25:20.449Z,0.50
2022-08-01T22:28:08.060Z,0.40
2022-08-01T22:30:39.830Z,0.52
2022-08-01T22:33:17.274Z,0.40
2022-08-01T22:35:46.997Z,0.60
2022-08-01T22:38:14.145Z,0.50
2022-08-01T22:40:54.045Z,0.40
2022-08-01T22:43:23.634Z,0.40
2022-08-01T22:46:13.094Z,0.52
2022-08-01T22:48:51.487Z,0.50
2022-08-01T22:51:36.912Z,0.50
2022-08-01T22:54:09.855Z,0.50
2022-08-01T22:56:53.253Z,0.25
2022-08-01T22:59:42.619Z,0.32
2022-08-01T23:02:15.786Z,0.50
2022-08-01T23:04:45.698Z,0.65
2022-08-01T23:07:19.092Z,0.40
2022-08-01T23:09:53.619Z,0.50
2022-08-01T23:12:24.807Z,0.35
2022-08-01T23:14:54.363Z,0.70
2022-08-01T23:17:27.547Z,0.60
2022-08-01T23:19:59.162Z,0.30
2022-08-01T23:22:34.664Z,0.40
2022-08-01T23:25:06.254Z,0.45
2022-08-01T23:27:51.660Z,0.50
2022-08-01T23:30:28.866Z,0.40
2022-08-01T23:32:55.834Z,0.50
2022-08-01T23:35:22.709Z,0.47
2022-08-01T23:37:51.078Z,0.35
2022-08-01T23:40:18.945Z,0.30
2022-08-01T23:42:45.869Z,0.47
2022-08-01T23:45:12.555Z,0.28
2022-08-01T23:47:39.395Z,0.40
2022-08-01T23:50:07.730Z,0.60
2022-08-01T23:52:35.845Z,0.50
2022-08-01T23:55:14.923Z,0.60
2022-08-01T23:57:41.814Z,0.52
